Time;durP1;ratioP1;P1;durP2;ratioP2;P2;SDS_P1;SDS_P2;PMS_P1;PMS_P2;Temp;Humidity;BMP_temperature;BMP_pressure;BME280_temperature;BME280_humidity;BME280_pressure;Samples;Min_cycle;Max_cycle;Signal;HPM_P1;HPM_P2
2022/08/30 00:02:00;;;;;;;10.10;4.43;;;22.70;60.90;;;;;;5043738;28;20197;-94
2022/08/30 00:04:27;;;;;;;13.70;6.03;;;22.70;60.00;;;;;;5050797;28;20204;-94
2022/08/30 00:06:54;;;;;;;13.97;5.43;;;22.70;60.10;;;;;;5051067;28;20614;-93
2022/08/30 00:09:21;;;;;;;10.83;5.00;;;22.70;60.20;;;;;;5050863;28;20764;-95
2022/08/30 00:12:17;;;;;;;13.23;5.40;;;22.70;60.40;;;;;;5049871;28;20212;-94
2022/08/30 00:14:44;;;;;;;10.87;5.07;;;22.60;61.10;;;;;;5049706;28;20251;-95
2022/08/30 00:17:11;;;;;;;10.17;4.83;;;22.70;60.50;;;;;;5051009;28;20202;-94
2022/08/30 00:19:39;;;;;;;13.00;5.40;;;22.60;60.50;;;;;;5050716;28;20270;-93
2022/08/30 00:22:09;;;;;;;10.43;5.10;;;22.60;60.80;;;;;;5051350;28;20192;-94
2022/08/30 00:24:37;;;;;;;12.37;5.63;;;22.60;60.70;;;;;;5051327;28;20208;-91
2022/08/30 00:27:07;;;;;;;9.47;4.70;;;22.60;60.80;;;;;;5050578;28;20241;-92
2022/08/30 00:29:36;;;;;;;11.90;5.03;;;22.50;60.90;;;;;;5049966;28;20233;-92
2022/08/30 00:32:05;;;;;;;12.33;4.77;;;22.50;61.20;;;;;;5050827;28;20212;-94
2022/08/30 00:34:32;;;;;;;9.30;4.67;;;22.50;61.10;;;;;;5059995;28;20204;-94
2022/08/30 00:36:59;;;;;;;14.00;5.90;;;22.50;62.00;;;;;;5052177;28;20208;-95
2022/08/30 00:39:28;;;;;;;9.83;5.10;;;22.50;61.10;;;;;;5051264;28;20239;-94
2022/08/30 00:41:56;;;;;;;15.10;6.00;;;22.50;61.50;;;;;;5051300;28;20231;-95
2022/08/30 00:44:24;;;;;;;8.80;4.83;;;22.40;61.40;;;;;;5051275;28;20204;-94
2022/08/30 00:46:53;;;;;;;12.23;5.87;;;22.40;61.50;;;;;;5050541;28;20217;-94
2022/08/30 00:49:21;;;;;;;10.77;5.63;;;22.40;61.60;;;;;;5050235;28;20625;-91
2022/08/30 00:51:49;;;;;;;10.67;5.67;;;22.40;61.70;;;;;;5050270;28;20189;-92
2022/08/30 00:54:17;;;;;;;10.10;5.07;;;22.40;61.80;;;;;;5051325;28;20261;-93
2022/08/30 00:56:45;;;;;;;12.10;5.67;;;22.30;61.90;;;;;;5050170;28;20239;-92
2022/08/30 00:59:12;;;;;;;16.10;6.73;;;22.30;61.90;;;;;;5050577;28;20246;-93
2022/08/30 01:01:46;;;;;;;11.13;5.33;;;22.30;62.10;;;;;;5050364;28;20593;-92
2022/08/30 01:04:18;;;;;;;10.13;5.63;;;22.30;62.40;;;;;;5050542;28;20195;-92
2022/08/30 01:06:47;;;;;;;16.63;6.73;;;22.30;62.30;;;;;;5050474;28;20230;-91
2022/08/30 01:09:15;;;;;;;9.57;5.37;;;22.20;62.30;;;;;;5050037;28;20258;-93
2022/08/30 01:11:44;;;;;;;9.30;5.30;;;22.20;62.30;;;;;;5050319;28;20204;-92
2022/08/30 01:14:20;;;;;;;14.77;5.80;;;22.20;62.60;;;;;;5050217;28;20219;-93
2022/08/30 01:16:49;;;;;;;14.47;7.13;;;22.20;63.20;;;;;;5031988;28;20214;-93
2022/08/30 01:19:28;;;;;;;12.27;6.20;;;22.20;62.70;;;;;;5030093;28;20208;-93
2022/08/30 01:22:02;;;;;;;11.73;5.43;;;22.10;63.30;;;;;;5029887;28;20240;-93
2022/08/30 01:24:56;;;;;;;11.07;5.77;;;22.10;63.20;;;;;;5030391;28;20269;-93
2022/08/30 01:27:26;;;;;;;15.50;6.17;;;22.10;63.70;;;;;;5026633;28;20286;-92
2022/08/30 01:29:56;;;;;;;12.93;5.87;;;22.10;63.10;;;;;;5033447;28;20611;-92
2022/08/30 01:32:27;;;;;;;10.20;5.50;;;22.10;63.40;;;;;;5029851;28;20683;-91
2022/08/30 01:34:56;;;;;;;13.47;5.87;;;22.10;63.40;;;;;;5029508;28;20219;-93
2022/08/30 01:37:28;;;;;;;15.37;6.30;;;22.00;63.50;;;;;;5029004;28;20210;-91
2022/08/30 01:39:58;;;;;;;14.13;6.77;;;22.00;63.80;;;;;;5037881;28;20565;-93
2022/08/30 01:42:25;;;;;;;14.77;6.20;;;22.00;64.00;;;;;;5037523;28;20201;-92
2022/08/30 01:44:53;;;;;;;12.17;6.43;;;22.00;63.70;;;;;;5038849;28;20278;-92
2022/08/30 01:47:20;;;;;;;16.27;7.50;;;22.00;64.10;;;;;;5037884;28;20304;-93
2022/08/30 01:49:47;;;;;;;15.73;6.93;;;21.90;64.00;;;;;;5043077;28;20220;-93
2022/08/30 01:52:16;;;;;;;12.47;6.50;;;21.90;64.10;;;;;;5038737;28;20307;-94
2022/08/30 01:54:44;;;;;;;14.77;6.87;;;21.90;64.20;;;;;;5040592;28;20213;-94
2022/08/30 01:57:29;;;;;;;9.93;5.23;;;21.90;64.20;;;;;;5038983;28;20208;-93
2022/08/30 02:02:30;;;;;;;6.70;4.67;;;22.00;64.40;;;;;;5048730;28;20208;-92
2022/08/30 02:05:05;;;;;;;11.80;5.70;;;21.90;64.70;;;;;;5061966;28;20226;-91
2022/08/30 02:07:38;;;;;;;8.20;4.77;;;21.90;64.90;;;;;;5053219;28;20189;-93
2022/08/30 02:10:06;;;;;;;14.40;6.80;;;21.90;64.90;;;;;;5052276;28;20265;-93
2022/08/30 02:12:39;;;;;;;9.70;5.47;;;21.90;64.70;;;;;;5033104;28;20205;-93
2022/08/30 02:15:08;;;;;;;9.83;5.27;;;21.90;65.00;;;;;;5050378;28;20282;-92
2022/08/30 02:17:52;;;;;;;10.93;5.60;;;21.90;64.90;;;;;;5053215;28;20250;-93
2022/08/30 02:20:23;;;;;;;11.47;5.33;;;21.90;65.20;;;;;;5053330;28;20724;-92
2022/08/30 02:22:51;;;;;;;10.93;5.63;;;21.90;65.10;;;;;;5055275;28;20238;-90
2022/08/30 02:25:20;;;;;;;11.67;6.13;;;21.90;64.90;;;;;;5039855;28;20218;-93
2022/08/30 02:27:48;;;;;;;9.97;4.83;;;21.90;65.00;;;;;;5052623;28;20301;-93
2022/08/30 02:30:38;;;;;;;10.40;6.00;;;21.90;64.90;;;;;;5051311;28;20323;-93
2022/08/30 02:33:05;;;;;;;12.17;5.13;;;21.80;65.60;;;;;;5049411;28;20200;-93
2022/08/30 02:35:33;;;;;;;10.97;5.47;;;21.90;64.90;;;;;;5050300;28;20208;-93
2022/08/30 02:38:00;;;;;;;12.63;5.10;;;21.80;64.90;;;;;;5049376;28;20224;-93
2022/08/30 02:40:29;;;;;;;11.00;5.83;;;21.80;64.90;;;;;;5049336;28;20236;-92
2022/08/30 02:42:58;;;;;;;13.30;6.03;;;21.80;65.30;;;;;;5050890;28;20298;-93
2022/08/30 02:45:26;;;;;;;13.73;5.80;;;21.80;65.50;;;;;;5070062;28;20200;-93
2022/08/30 02:47:55;;;;;;;13.13;6.17;;;21.80;65.30;;;;;;5070845;28;20192;-93
2022/08/30 02:50:25;;;;;;;10.20;5.50;;;21.80;65.40;;;;;;5055061;28;20236;-94
2022/08/30 02:52:54;;;;;;;9.53;5.10;;;21.80;65.80;;;;;;5052541;28;20200;-92
2022/08/30 02:55:22;;;;;;;9.77;4.67;;;21.80;65.70;;;;;;5055330;28;20279;-94
2022/08/30 02:57:50;;;;;;;10.90;5.60;;;21.70;65.30;;;;;;5053704;28;20265;-92
2022/08/30 03:00:21;;;;;;;12.57;5.20;;;21.70;65.60;;;;;;5052977;28;20647;-93
2022/08/30 03:02:51;;;;;;;13.83;6.93;;;21.70;66.00;;;;;;5053327;28;20204;-93
2022/08/30 03:05:18;;;;;;;8.67;5.03;;;21.70;66.10;;;;;;5052746;28;20204;-93
2022/08/30 03:07:46;;;;;;;10.47;4.97;;;21.70;65.90;;;;;;5053336;28;20209;-94
2022/08/30 03:10:15;;;;;;;9.87;5.67;;;21.70;65.90;;;;;;5071080;28;20219;-93
2022/08/30 03:12:43;;;;;;;15.63;7.20;;;21.70;66.10;;;;;;5072291;28;20243;-94
2022/08/30 03:15:12;;;;;;;10.80;5.00;;;21.70;66.20;;;;;;5053974;28;20188;-94
2022/08/30 03:17:42;;;;;;;11.70;5.53;;;21.70;66.20;;;;;;5053295;28;20200;-93
2022/08/30 03:20:10;;;;;;;9.97;4.80;;;21.70;66.30;;;;;;5052793;28;20270;-93
2022/08/30 03:22:39;;;;;;;9.87;5.07;;;21.70;66.30;;;;;;5052724;28;20209;-94
2022/08/30 03:25:09;;;;;;;10.77;5.47;;;21.70;66.20;;;;;;5053389;28;20600;-94
2022/08/30 03:27:37;;;;;;;10.63;5.37;;;21.70;66.30;;;;;;5052260;28;20290;-92
2022/08/30 03:30:05;;;;;;;10.63;5.17;;;21.70;66.30;;;;;;5052084;28;20205;-93
2022/08/30 03:32:32;;;;;;;10.13;4.77;;;21.70;66.20;;;;;;5052585;28;20917;-93
2022/08/30 03:35:02;;;;;;;10.80;5.37;;;21.70;66.30;;;;;;5051934;28;20319;-92
2022/08/30 03:37:29;;;;;;;12.47;5.60;;;21.70;66.40;;;;;;5051805;28;20209;-93
2022/08/30 03:40:25;;;;;;;13.00;5.60;;;21.70;66.20;;;;;;5052632;28;20209;-93
2022/08/30 03:43:06;;;;;;;;;;;;;;;;;;;;;
2022/08/30 03:45:34;;;;;;;9.77;5.33;;;21.70;66.60;;;;;;5046902;28;21014;-93
2022/08/30 03:48:04;;;;;;;9.10;4.67;;;21.70;66.30;;;;;;5051751;28;20609;-92
2022/08/30 03:50:34;;;;;;;12.50;5.80;;;21.60;66.30;;;;;;5049725;28;20220;-93
2022/08/30 03:53:01;;;;;;;12.90;5.73;;;21.60;66.50;;;;;;5050074;28;20200;-93
2022/08/30 03:55:29;;;;;;;13.37;6.17;;;21.60;66.40;;;;;;5049959;28;20641;-92
2022/08/30 03:58:03;;;;;;;11.43;5.30;;;21.60;66.60;;;;;;5032008;28;20240;-93
2022/08/30 04:00:30;;;;;;;15.10;6.10;;;21.70;66.70;;;;;;5050802;28;20302;-92
2022/08/30 04:05:46;;;;;;;45.33;14.97;;;21.60;67.50;;;;;;5064647;22;20764;-93
2022/08/30 04:08:13;;;;;;;12.80;5.77;;;21.60;67.00;;;;;;5069038;22;20353;-93
2022/08/30 04:10:54;;;;;;;9.43;5.00;;;21.60;66.80;;;;;;5064027;28;20258;-93
2022/08/30 04:13:23;;;;;;;10.47;5.60;;;21.60;67.50;;;;;;5054979;28;20238;-92
2022/08/30 04:15:50;;;;;;;12.50;5.93;;;21.60;67.10;;;;;;5051006;28;20406;-92
2022/08/30 04:18:24;;;;;;;11.67;5.27;;;21.50;67.00;;;;;;5049668;28;20311;-94
2022/08/30 04:20:59;;;;;;;11.73;5.70;;;21.50;67.40;;;;;;5049468;28;20208;-93
2022/08/30 04:23:27;;;;;;;12.23;5.47;;;21.60;67.50;;;;;;5049856;28;20196;-93
2022/08/30 04:26:20;;;;;;;10.77;5.37;;;21.50;67.20;;;;;;5050141;28;20289;-92
2022/08/30 04:28:47;;;;;;;8.37;4.53;;;21.60;67.50;;;;;;5051064;28;21039;-93
2022/08/30 04:31:17;;;;;;;14.53;6.33;;;21.50;68.10;;;;;;5051433;28;20219;-92
2022/08/30 04:33:46;;;;;;;10.53;4.63;;;21.50;67.40;;;;;;5052465;28;20204;-93
2022/08/30 04:36:21;;;;;;;9.50;4.97;;;21.50;67.50;;;;;;5050731;28;20200;-93
2022/08/30 04:38:49;;;;;;;10.33;4.43;;;21.50;68.00;;;;;;5051640;28;20615;-92
2022/08/30 04:41:19;;;;;;;10.60;5.73;;;21.50;67.40;;;;;;5050412;28;20204;-93
2022/08/30 04:43:50;;;;;;;10.17;5.00;;;21.50;67.60;;;;;;5050834;28;20676;-94
2022/08/30 04:46:19;;;;;;;11.50;5.80;;;21.50;67.40;;;;;;5051750;28;20230;-90
2022/08/30 04:48:47;;;;;;;13.67;6.20;;;21.50;67.40;;;;;;5055518;28;20222;-93
2022/08/30 04:51:22;;;;;;;9.13;4.47;;;21.50;67.60;;;;;;5051973;28;20227;-91
2022/08/30 04:53:48;;;;;;;13.87;6.13;;;21.50;68.00;;;;;;5052582;28;20266;-92
2022/08/30 04:56:21;;;;;;;8.60;4.43;;;21.50;67.50;;;;;;5051361;28;20232;-93
2022/08/30 05:01:32;;;;;;;11.37;5.63;;;21.40;67.50;;;;;;5063995;28;20208;-93
2022/08/30 05:04:01;;;;;;;13.97;6.10;;;21.40;67.60;;;;;;5072210;28;20207;-92
2022/08/30 05:06:30;;;;;;;13.13;5.90;;;21.40;67.80;;;;;;5062717;28;20189;-89
2022/08/30 05:12:02;;;;;;;7.87;4.43;;;21.40;68.50;;;;;;5059904;22;20251;-92
2022/08/30 05:14:32;;;;;;;10.40;5.43;;;21.40;67.90;;;;;;5050646;28;20192;-92
2022/08/30 05:17:24;;;;;;;9.67;5.17;;;21.30;67.90;;;;;;5049930;28;20203;-93
2022/08/30 05:19:51;;;;;;;12.23;5.20;;;21.30;68.50;;;;;;5050316;28;20249;-92
2022/08/30 05:22:24;;;;;;;12.40;5.97;;;21.40;68.00;;;;;;5049605;28;20906;-92
2022/08/30 05:24:52;;;;;;;13.30;6.03;;;21.30;68.40;;;;;;5049181;28;20310;-91
2022/08/30 05:30:06;;;;;;;9.57;5.40;;;21.30;68.20;;;;;;5048636;28;20210;-91
2022/08/30 05:32:33;;;;;;;8.97;5.00;;;21.30;68.00;;;;;;5049580;28;20277;-92
2022/08/30 05:35:01;;;;;;;12.50;5.57;;;21.20;68.10;;;;;;5049264;28;20196;-92
2022/08/30 05:37:41;;;;;;;11.23;5.93;;;21.20;68.40;;;;;;5048680;28;20251;-93
2022/08/30 05:40:10;;;;;;;14.77;6.63;;;21.20;68.90;;;;;;5049321;28;21010;-92
2022/08/30 05:42:37;;;;;;;12.73;5.63;;;21.20;68.40;;;;;;5049238;28;20734;-92
2022/08/30 05:45:06;;;;;;;11.13;5.30;;;21.20;68.40;;;;;;5049519;28;20196;-92
2022/08/30 05:47:34;;;;;;;11.83;6.17;;;21.20;68.50;;;;;;5049489;28;20216;-92
2022/08/30 05:50:03;;;;;;;11.27;5.73;;;21.20;68.70;;;;;;5047780;28;20214;-91
2022/08/30 05:52:31;;;;;;;11.60;6.00;;;21.20;69.00;;;;;;5049295;28;20239;-91
2022/08/30 05:55:02;;;;;;;11.37;5.83;;;21.20;69.20;;;;;;5049026;28;20587;-92
2022/08/30 05:57:32;;;;;;;14.70;6.50;;;21.20;69.50;;;;;;5049160;28;20242;-92
2022/08/30 06:00:00;;;;;;;14.13;6.00;;;21.20;69.60;;;;;;5050307;28;20716;-92
2022/08/30 06:02:27;;;;;;;11.77;5.70;;;21.20;69.50;;;;;;5049748;28;20353;-94
2022/08/30 06:04:55;;;;;;;13.33;6.47;;;21.20;69.50;;;;;;5049308;28;20220;-92
2022/08/30 06:07:22;;;;;;;13.20;6.83;;;21.30;70.00;;;;;;5048963;28;20196;-91
2022/08/30 06:09:49;;;;;;;15.80;6.33;;;21.20;70.60;;;;;;5048789;28;20302;-92
2022/08/30 06:12:19;;;;;;;13.97;6.47;;;21.30;70.00;;;;;;5048870;28;20224;-91
2022/08/30 06:14:47;;;;;;;10.93;5.83;;;21.30;70.20;;;;;;5048623;28;20204;-92
2022/08/30 06:17:15;;;;;;;11.00;6.20;;;21.30;70.00;;;;;;5048731;28;20227;-92
2022/08/30 06:19:42;;;;;;;9.83;5.60;;;21.30;70.10;;;;;;5048397;28;20235;-91
2022/08/30 06:22:11;;;;;;;14.03;6.93;;;21.40;70.10;;;;;;5048215;28;20204;-93
2022/08/30 06:24:39;;;;;;;19.00;8.90;;;21.40;70.30;;;;;;5137915;22;20199;-91
2022/08/30 06:27:06;;;;;;;12.87;6.10;;;21.40;70.20;;;;;;5047619;28;20224;-90
2022/08/30 06:29:35;;;;;;;11.50;5.90;;;21.40;70.20;;;;;;5051461;28;20196;-91
2022/08/30 06:32:03;;;;;;;11.60;5.90;;;21.40;70.50;;;;;;5051852;28;20274;-91
2022/08/30 06:34:31;;;;;;;15.97;6.77;;;21.50;70.40;;;;;;5054881;28;20197;-90
2022/08/30 06:36:57;;;;;;;15.60;6.10;;;21.50;70.40;;;;;;5071275;28;20193;-91
2022/08/30 06:39:31;;;;;;;12.30;6.27;;;21.50;70.40;;;;;;5066419;28;20204;-91
2022/08/30 06:42:04;;;;;;;8.83;5.83;;;21.50;71.10;;;;;;5057949;28;20208;-90
2022/08/30 06:44:31;;;;;;;8.90;5.37;;;21.50;71.10;;;;;;5058237;28;20245;-90
2022/08/30 06:47:00;;;;;;;8.17;4.90;;;21.50;70.40;;;;;;5056995;28;20385;-92
2022/08/30 06:49:27;;;;;;;10.93;6.50;;;21.60;70.90;;;;;;5058593;28;20285;-92
2022/08/30 06:51:56;;;;;;;8.63;5.60;;;21.60;70.80;;;;;;5057538;28;20680;-92
2022/08/30 06:54:23;;;;;;;13.47;6.83;;;21.70;71.10;;;;;;5055445;28;20204;-90
2022/08/30 06:56:50;;;;;;;8.33;5.07;;;21.70;70.80;;;;;;5054182;28;20211;-91
2022/08/30 06:59:17;;;;;;;12.10;5.80;;;21.70;70.60;;;;;;5052069;28;20188;-91
2022/08/30 07:01:45;;;;;;;10.97;6.27;;;21.80;70.70;;;;;;5052936;28;20207;-91
2022/08/30 07:04:14;;;;;;;12.43;6.77;;;21.80;70.70;;;;;;5051903;28;20192;-90
2022/08/30 07:06:41;;;;;;;12.37;6.17;;;21.80;70.80;;;;;;5051105;28;20750;-89
2022/08/30 07:09:11;;;;;;;16.87;7.90;;;21.90;70.70;;;;;;5051482;28;20223;-90
2022/08/30 07:11:39;;;;;;;20.67;6.30;;;21.90;70.80;;;;;;5051230;28;20290;-90
2022/08/30 07:14:07;;;;;;;12.20;6.37;;;22.00;70.70;;;;;;5051887;28;20644;-90
2022/08/30 07:16:36;;;;;;;11.83;6.87;;;22.00;70.80;;;;;;5051210;28;20606;-90
2022/08/30 07:19:04;;;;;;;12.00;6.30;;;22.10;70.90;;;;;;5051362;28;20227;-91
2022/08/30 07:21:35;;;;;;;10.93;6.17;;;22.10;70.80;;;;;;5050489;28;20204;-91
2022/08/30 07:24:04;;;;;;;10.17;5.43;;;22.20;70.80;;;;;;5051689;28;20196;-91
2022/08/30 07:26:34;;;;;;;9.80;5.80;;;22.20;70.50;;;;;;5050236;28;20293;-89
2022/08/30 07:29:02;;;;;;;12.67;6.53;;;22.20;70.50;;;;;;5050399;28;20192;-90
2022/08/30 07:31:30;;;;;;;12.93;7.10;;;22.30;70.30;;;;;;5052160;28;20258;-90
2022/08/30 07:34:03;;;;;;;15.77;7.80;;;22.40;70.30;;;;;;5051156;28;20296;-90
2022/08/30 07:36:30;;;;;;;15.07;6.27;;;22.40;70.40;;;;;;5051841;28;20288;-92
2022/08/30 07:38:59;;;;;;;9.63;5.33;;;22.50;70.10;;;;;;5050044;28;20204;-89
2022/08/30 07:41:28;;;;;;;12.27;6.53;;;22.50;70.10;;;;;;5050022;28;20660;-90
2022/08/30 07:43:57;;;;;;;10.80;6.07;;;22.60;70.00;;;;;;5050540;28;20265;-92
2022/08/30 07:46:24;;;;;;;16.73;7.33;;;22.60;69.70;;;;;;5051179;28;20330;-90
2022/08/30 07:48:53;;;;;;;9.37;5.37;;;22.70;69.80;;;;;;5050423;28;20752;-88
2022/08/30 07:51:23;;;;;;;11.37;6.17;;;22.70;69.70;;;;;;5050575;28;20249;-90
2022/08/30 07:53:51;;;;;;;10.10;5.10;;;22.80;69.60;;;;;;5050951;28;20240;-89
2022/08/30 07:56:19;;;;;;;8.97;5.10;;;22.80;69.50;;;;;;5050526;28;20294;-91
2022/08/30 07:58:47;;;;;;;8.57;5.30;;;22.90;69.20;;;;;;5050378;28;20265;-91
2022/08/30 08:01:16;;;;;;;12.80;6.13;;;23.00;69.20;;;;;;5050374;28;20261;-89
2022/08/30 08:03:45;;;;;;;11.83;5.60;;;23.00;69.00;;;;;;5050184;28;20207;-91
2022/08/30 08:06:14;;;;;;;10.97;5.10;;;23.10;69.10;;;;;;5049541;28;20238;-90
2022/08/30 08:08:42;;;;;;;11.20;5.93;;;23.20;69.20;;;;;;5049920;28;20199;-88
2022/08/30 08:11:12;;;;;;;12.70;6.47;;;23.30;68.90;;;;;;5050094;28;20273;-91
2022/08/30 08:13:41;;;;;;;9.77;5.70;;;23.30;68.50;;;;;;5049235;28;20304;-90
2022/08/30 08:16:08;;;;;;;10.57;5.83;;;23.40;68.30;;;;;;5049828;28;20231;-89
2022/08/30 08:18:36;;;;;;;15.43;6.67;;;23.50;68.30;;;;;;5049164;28;20300;-89
2022/08/30 08:21:04;;;;;;;13.13;5.93;;;23.60;67.80;;;;;;5049667;28;20203;-90
2022/08/30 08:23:31;;;;;;;10.17;5.40;;;23.60;67.50;;;;;;5049954;28;20200;-90
2022/08/30 08:26:01;;;;;;;10.87;5.27;;;23.70;67.20;;;;;;5048815;28;20236;-91
2022/08/30 08:28:28;;;;;;;11.43;5.67;;;23.80;67.20;;;;;;5049153;28;20242;-91
2022/08/30 08:30:57;;;;;;;13.30;6.43;;;23.80;67.00;;;;;;5049569;28;20224;-92
2022/08/30 08:33:24;;;;;;;8.33;5.20;;;24.00;67.20;;;;;;5049200;28;20263;-92
2022/08/30 08:35:52;;;;;;;10.53;6.23;;;24.10;66.80;;;;;;5049151;28;20294;-91
2022/08/30 08:38:19;;;;;;;8.83;5.07;;;24.10;66.30;;;;;;5049794;28;20615;-91
2022/08/30 08:40:55;;;;;;;9.70;5.53;;;24.20;66.40;;;;;;5049379;28;20206;-90
2022/08/30 08:43:26;;;;;;;10.50;5.07;;;24.30;66.00;;;;;;5048952;28;20208;-90
2022/08/30 08:46:05;;;;;;;9.63;5.30;;;24.30;65.70;;;;;;5049441;28;20550;-92
2022/08/30 08:48:40;;;;;;;13.23;6.07;;;24.40;65.50;;;;;;5048488;28;20203;-91
2022/08/30 08:54:03;;;;;;;9.93;5.20;;;24.50;64.90;;;;;;5038384;28;20331;-90
2022/08/30 08:56:33;;;;;;;10.00;4.73;;;24.70;65.10;;;;;;5048550;28;20192;-90
2022/08/30 08:59:00;;;;;;;11.83;5.43;;;24.70;65.10;;;;;;5049308;28;20285;-91
2022/08/30 09:01:32;;;;;;;11.47;5.13;;;24.80;65.10;;;;;;5049362;28;20199;-92
2022/08/30 09:04:05;;;;;;;10.73;4.87;;;24.90;64.50;;;;;;5049716;28;20573;-91
2022/08/30 09:07:05;;;;;;;8.27;4.57;;;25.00;64.20;;;;;;5049843;28;20204;-91
2022/08/30 09:09:34;;;;;;;8.90;3.73;;;25.10;63.70;;;;;;5049652;28;20212;-88
2022/08/30 09:12:02;;;;;;;11.17;5.07;;;25.20;63.60;;;;;;5048865;28;20255;-90
2022/08/30 09:14:33;;;;;;;9.13;4.63;;;25.30;63.70;;;;;;5048976;28;20674;-91
2022/08/30 09:17:24;;;;;;;10.53;4.80;;;25.50;63.00;;;;;;5048637;28;21066;-91
2022/08/30 09:20:01;;;;;;;10.23;5.20;;;25.60;62.30;;;;;;5048565;28;20231;-90
2022/08/30 09:22:34;;;;;;;11.33;5.37;;;25.70;62.30;;;;;;5048263;28;20664;-92
2022/08/30 09:25:05;;;;;;;8.43;4.60;;;25.80;62.30;;;;;;5048541;28;20232;-90
2022/08/30 09:27:35;;;;;;;10.57;5.27;;;25.90;61.90;;;;;;5048145;28;20252;-90
2022/08/30 09:30:08;;;;;;;10.47;4.70;;;26.10;62.00;;;;;;5048150;28;20731;-90
2022/08/30 09:32:38;;;;;;;12.83;5.43;;;26.20;61.20;;;;;;5048313;28;20572;-91
2022/08/30 09:35:10;;;;;;;8.37;4.33;;;26.20;60.60;;;;;;5050363;28;20289;-90
2022/08/30 09:37:46;;;;;;;15.17;5.70;;;26.40;60.70;;;;;;5048887;28;20677;-91
2022/08/30 09:40:17;;;;;;;10.10;4.40;;;26.50;60.00;;;;;;5049944;28;20200;-91
2022/08/30 09:43:06;;;;;;;8.30;4.20;;;26.50;60.10;;;;;;5049222;28;20192;-91
2022/08/30 09:45:35;;;;;;;10.50;4.77;;;26.60;58.80;;;;;;5049527;28;20204;-92
2022/08/30 09:48:23;;;;;;;8.47;4.07;;;26.70;59.50;;;;;;5050268;28;20192;-91
2022/08/30 09:51:05;;;;;;;6.53;3.43;;;26.90;59.30;;;;;;5050722;28;20235;-93
2022/08/30 09:53:35;;;;;;;7.73;4.13;;;27.00;58.80;;;;;;5049286;28;20231;-91
2022/08/30 09:56:07;;;;;;;17.23;6.43;;;27.10;59.20;;;;;;5049869;28;20611;-92
2022/08/30 09:58:50;;;;;;;9.97;4.67;;;27.30;58.60;;;;;;5049272;28;20212;-91
2022/08/30 10:01:24;;;;;;;7.53;3.97;;;27.30;58.30;;;;;;5050066;28;20298;-92
2022/08/30 10:04:02;;;;;;;6.30;3.23;;;27.50;58.30;;;;;;5050884;28;20795;-92
2022/08/30 10:06:34;;;;;;;9.77;4.23;;;27.70;57.90;;;;;;5053209;28;20709;-91
2022/08/30 10:09:15;;;;;;;6.23;3.70;;;27.80;58.10;;;;;;5053718;28;20239;-94
2022/08/30 10:11:50;;;;;;;6.93;3.90;;;28.00;57.30;;;;;;5054240;28;20212;-91
2022/08/30 10:14:39;;;;;;;6.80;4.03;;;28.20;56.90;;;;;;5055209;28;20227;-92
2022/08/30 10:17:12;;;;;;;6.53;3.80;;;28.30;56.10;;;;;;5053577;28;20211;-93
2022/08/30 10:19:56;;;;;;;7.57;3.73;;;28.50;56.30;;;;;;5052985;28;20269;-92
2022/08/30 10:22:29;;;;;;;8.80;4.60;;;28.60;55.40;;;;;;5051942;28;20293;-92
2022/08/30 10:25:05;;;;;;;5.87;3.47;;;28.80;55.90;;;;;;5051882;28;20266;-90
2022/08/30 10:27:38;;;;;;;8.60;4.80;;;28.80;55.30;;;;;;5055427;28;20208;-91
2022/08/30 10:30:09;;;;;;;8.50;3.30;;;29.00;54.50;;;;;;5067460;28;20203;-90
2022/08/30 10:32:42;;;;;;;6.73;4.20;;;29.00;54.80;;;;;;5070150;28;20230;-89
2022/08/30 10:35:16;;;;;;;7.17;2.87;;;29.10;54.10;;;;;;5061196;28;20668;-91
2022/08/30 10:37:50;;;;;;;5.30;3.27;;;29.20;53.70;;;;;;5058442;28;20247;-92
2022/08/30 10:43:13;;;;;;;8.97;3.50;;;29.40;53.40;;;;;;5038899;28;20204;-90
2022/08/30 10:45:44;;;;;;;9.43;4.23;;;29.40;53.90;;;;;;5050978;28;20204;-91
2022/08/30 10:48:28;;;;;;;7.50;3.53;;;29.50;54.40;;;;;;5051337;28;20207;-91
2022/08/30 10:51:02;;;;;;;6.77;3.83;;;29.60;53.00;;;;;;5051082;28;20251;-91
2022/08/30 10:53:33;;;;;;;10.03;4.70;;;29.70;53.00;;;;;;5051311;28;20282;-91
2022/08/30 10:56:03;;;;;;;8.30;4.33;;;29.80;52.70;;;;;;5051076;28;20914;-91
2022/08/30 10:58:31;;;;;;;8.47;4.00;;;29.90;52.40;;;;;;5050781;28;20236;-91
2022/08/30 11:01:16;;;;;;;10.10;4.47;;;30.00;52.50;;;;;;5051281;28;21087;-92
2022/08/30 11:04:28;;;;;;;8.63;4.33;;;30.10;52.10;;;;;;5050963;28;20199;-91
2022/08/30 11:07:08;;;;;;;8.80;4.63;;;30.20;51.10;;;;;;5051116;28;20189;-91
2022/08/30 11:10:01;;;;;;;6.93;3.83;;;30.30;51.20;;;;;;5051252;28;20279;-91
2022/08/30 11:12:33;;;;;;;8.10;4.50;;;30.30;51.40;;;;;;5051185;28;20212;-93
2022/08/30 11:15:16;;;;;;;7.73;3.70;;;30.50;51.30;;;;;;5050695;28;20216;-90
2022/08/30 11:17:53;;;;;;;5.97;3.43;;;30.50;50.20;;;;;;5050868;28;20966;-90
2022/08/30 11:20:28;;;;;;;9.77;4.85;;;30.70;51.20;;;;;;5050988;28;20212;-90
2022/08/30 11:23:21;;;;;;;12.33;4.03;;;30.80;50.60;;;;;;5050811;28;20207;-91
2022/08/30 11:25:51;;;;;;;13.93;5.47;;;30.90;50.10;;;;;;5050151;28;20281;-89
2022/08/30 11:28:51;;;;;;;6.03;4.05;;;31.10;50.20;;;;;;5050614;28;20267;-91
2022/08/30 11:31:40;;;;;;;6.28;3.85;;;31.20;49.60;;;;;;5050224;28;20239;-91
2022/08/30 11:34:08;;;;;;;7.85;3.95;;;31.20;49.60;;;;;;5050133;28;20263;-91
2022/08/30 11:37:03;;;;;;;7.32;3.60;;;31.30;50.40;;;;;;5050362;28;20243;-90
2022/08/30 11:39:54;;;;;;;10.40;5.03;;;31.40;49.20;;;;;;5052206;28;20211;-92
2022/08/30 11:42:34;;;;;;;7.55;3.63;;;31.50;48.90;;;;;;5048361;28;20229;-93
2022/08/30 11:45:39;;;;;;;9.20;3.28;;;31.60;48.30;;;;;;5051355;28;20200;-93
2022/08/30 11:48:08;;;;;;;8.60;3.97;;;31.60;47.90;;;;;;5051016;28;20243;-93
2022/08/30 11:50:46;;;;;;;5.20;3.33;;;31.60;48.60;;;;;;5051152;28;20222;-92
2022/08/30 11:53:24;;;;;;;10.05;4.53;;;31.70;48.40;;;;;;5050741;28;20216;-90
2022/08/30 11:56:05;;;;;;;7.57;3.78;;;31.60;48.20;;;;;;5050961;28;20212;-92
2022/08/30 11:58:42;;;;;;;7.22;3.97;;;31.70;48.10;;;;;;5051528;28;20215;-93
2022/08/30 12:01:32;;;;;;;7.32;4.00;;;31.70;47.90;;;;;;5053197;28;20200;-92
2022/08/30 12:04:03;;;;;;;7.97;4.40;;;31.70;47.40;;;;;;5052945;28;20208;-92
2022/08/30 12:06:53;;;;;;;9.70;4.32;;;31.80;48.00;;;;;;5051733;28;20397;-91
2022/08/30 12:10:03;;;;;;;6.97;3.83;;;31.80;46.40;;;;;;5051160;28;20710;-91
2022/08/30 12:13:02;;;;;;;6.47;4.00;;;31.80;46.80;;;;;;5051172;28;20890;-92
2022/08/30 12:15:58;;;;;;;6.95;3.45;;;31.90;47.20;;;;;;5050634;28;20195;-92
2022/08/30 12:18:35;;;;;;;12.38;4.35;;;32.00;46.80;;;;;;5050086;28;20950;-91
2022/08/30 12:21:27;;;;;;;8.50;4.07;;;32.00;47.20;;;;;;5049818;28;20236;-91
2022/08/30 12:24:00;;;;;;;11.00;5.43;;;32.10;46.90;;;;;;5049863;28;20624;-92
2022/08/30 12:26:35;;;;;;;8.50;3.25;;;32.20;46.80;;;;;;5049251;28;20704;-93
2022/08/30 12:29:14;;;;;;;10.45;3.65;;;32.20;46.90;;;;;;5050410;28;20221;-90
2022/08/30 12:31:45;;;;;;;5.90;3.72;;;32.20;46.20;;;;;;5050092;28;20727;-91
2022/08/30 12:34:23;;;;;;;7.43;4.15;;;32.30;46.80;;;;;;5049649;28;20338;-93
2022/08/30 12:36:57;;;;;;;10.70;4.90;;;32.30;46.20;;;;;;5049383;28;20257;-91
2022/08/30 12:39:27;;;;;;;7.10;3.20;;;32.40;46.00;;;;;;5049589;28;20274;-91
2022/08/30 12:41:55;;;;;;;6.65;3.35;;;32.40;46.00;;;;;;5050121;28;20258;-89
2022/08/30 12:44:26;;;;;;;12.82;4.15;;;32.40;45.70;;;;;;5049569;28;20220;-92
2022/08/30 12:46:56;;;;;;;9.60;3.60;;;32.40;45.30;;;;;;5050068;28;20621;-90
2022/08/30 12:49:26;;;;;;;7.47;3.42;;;32.40;45.70;;;;;;5049542;28;20211;-89
2022/08/30 12:51:55;;;;;;;8.02;3.83;;;32.40;46.00;;;;;;5056092;28;20212;-92
2022/08/30 12:54:26;;;;;;;6.63;3.35;;;32.50;46.10;;;;;;5049207;28;20220;-91
2022/08/30 12:57:01;;;;;;;9.75;4.10;;;32.60;45.60;;;;;;5049852;28;20661;-91
2022/08/30 12:59:45;;;;;;;9.73;4.38;;;32.70;44.60;;;;;;5035755;28;20660;-93
2022/08/30 13:02:17;;;;;;;6.50;3.20;;;32.70;44.50;;;;;;5029411;28;20207;-91
2022/08/30 13:04:46;;;;;;;6.65;3.80;;;32.70;44.70;;;;;;5030632;28;20247;-92
2022/08/30 13:07:32;;;;;;;9.80;5.40;;;32.70;45.10;;;;;;5032362;28;20219;-89
2022/08/30 13:10:12;;;;;;;11.35;4.57;;;32.80;44.10;;;;;;5035895;28;20583;-91
2022/08/30 13:12:40;;;;;;;6.95;3.17;;;33.00;44.20;;;;;;5031319;28;20289;-89
2022/08/30 13:15:19;;;;;;;5.70;2.70;;;33.00;44.30;;;;;;5031988;28;20220;-92
2022/08/30 13:17:46;;;;;;;5.60;3.30;;;33.00;43.70;;;;;;5032635;28;20200;-92
2022/08/30 13:20:26;;;;;;;4.43;3.08;;;33.00;44.00;;;;;;5029621;28;20193;-91
2022/08/30 13:23:06;;;;;;;7.53;3.53;;;33.00;43.30;;;;;;5029243;28;20184;-91
2022/08/30 13:25:34;;;;;;;5.38;3.13;;;33.00;43.00;;;;;;5029249;28;20263;-90
2022/08/30 13:28:02;;;;;;;6.70;3.83;;;33.00;43.40;;;;;;5030008;28;20891;-91
2022/08/30 13:30:31;;;;;;;7.82;4.05;;;33.00;43.90;;;;;;5030397;28;20229;-90